createdAt,value
2024-04-19T00:01:45.084Z,2.47
2024-04-19T00:04:11.874Z,2.97
2024-04-19T00:06:38.507Z,2.78
2024-04-19T00:09:05.043Z,2.75
2024-04-19T00:11:31.530Z,2.42
2024-04-19T00:13:58.075Z,2.92
2024-04-19T00:16:26.421Z,2.75
2024-04-19T00:18:53.106Z,2.95
2024-04-19T00:21:20.707Z,2.67
2024-04-19T00:23:47.223Z,2.30
2024-04-19T00:26:13.742Z,2.53
2024-04-19T00:28:40.643Z,2.60
2024-04-19T00:31:07.296Z,2.60
2024-04-19T00:33:34.171Z,2.17
2024-04-19T00:36:00.738Z,2.53
2024-04-19T00:38:27.233Z,2.35
2024-04-19T00:40:55.807Z,2.10
2024-04-19T00:43:22.335Z,2.30
2024-04-19T00:45:48.994Z,2.20
2024-04-19T00:48:20.981Z,2.00
2024-04-19T00:50:54.382Z,1.80
2024-04-19T00:53:27.522Z,1.52
2024-04-19T00:55:56.675Z,1.98
2024-04-19T00:58:23.897Z,1.70
2024-04-19T01:00:51.778Z,1.70
2024-04-19T01:03:18.340Z,2.10
2024-04-19T01:05:44.922Z,2.03
2024-04-19T01:08:11.986Z,2.85
2024-04-19T01:10:40.357Z,1.92
2024-04-19T01:13:07.627Z,1.33
2024-04-19T01:15:37.098Z,2.42
2024-04-19T01:18:04.804Z,1.77
2024-04-19T01:20:31.471Z,1.42
2024-04-19T01:22:58.870Z,1.75
2024-04-19T01:25:37.085Z,1.75
2024-04-19T01:28:08.605Z,1.45
2024-04-19T01:30:36.308Z,1.20
2024-04-19T01:33:02.932Z,1.45
2024-04-19T01:35:29.763Z,1.58
2024-04-19T01:37:56.342Z,1.17
2024-04-19T01:40:23.163Z,1.33
2024-04-19T01:42:50.688Z,1.30
2024-04-19T01:45:17.284Z,1.58
2024-04-19T01:47:44.358Z,1.40
2024-04-19T01:50:10.953Z,1.60
2024-04-19T01:52:37.507Z,1.77
2024-04-19T01:55:04.821Z,1.25
2024-04-19T01:57:31.813Z,1.73
2024-04-19T01:59:58.394Z,1.27
2024-04-19T02:02:28.106Z,1.23
2024-04-19T02:04:54.670Z,1.17
2024-04-19T02:07:21.576Z,1.25
2024-04-19T02:09:48.339Z,1.30
2024-04-19T02:12:14.973Z,1.48
2024-04-19T02:14:41.490Z,1.10
2024-04-19T02:17:08.251Z,1.83
2024-04-19T02:19:37.651Z,1.65
2024-04-19T02:22:05.958Z,1.85
2024-04-19T02:24:34.030Z,1.27
2024-04-19T02:27:02.089Z,2.20
2024-04-19T02:29:47.446Z,1.65
2024-04-19T02:32:14.418Z,1.48
2024-04-19T02:34:44.760Z,1.23
2024-04-19T02:39:39.516Z,1.33
2024-04-19T02:42:06.090Z,1.67
2024-04-19T02:44:32.598Z,1.40
2024-04-19T02:46:59.137Z,1.23
2024-04-19T02:49:25.724Z,1.75
2024-04-19T02:51:53.672Z,1.65
2024-04-19T02:54:20.395Z,1.60
2024-04-19T02:56:46.906Z,1.80
2024-04-19T02:59:13.398Z,1.52
2024-04-19T03:01:39.898Z,2.17
2024-04-19T03:04:06.512Z,2.05
2024-04-19T03:06:33.171Z,1.95
2024-04-19T03:09:02.760Z,1.40
2024-04-19T03:11:29.677Z,1.27
2024-04-19T03:13:56.305Z,1.42
2024-04-19T03:16:22.801Z,1.30
2024-04-19T03:18:51.474Z,3.03
2024-04-19T03:21:18.271Z,1.52
2024-04-19T03:23:44.842Z,1.67
2024-04-19T03:26:11.751Z,1.20
2024-04-19T03:28:38.321Z,1.58
2024-04-19T03:31:08.529Z,1.45
2024-04-19T03:33:35.326Z,1.05
2024-04-19T03:36:06.888Z,1.20
2024-04-19T03:38:33.510Z,1.27
2024-04-19T03:41:00.036Z,1.42
2024-04-19T03:43:33.333Z,1.02
2024-04-19T03:46:01.478Z,0.98
2024-04-19T03:48:28.149Z,1.20
2024-04-19T03:50:54.759Z,1.10
2024-04-19T03:53:22.409Z,1.00
2024-04-19T03:55:49.218Z,1.52
2024-04-19T03:58:15.841Z,0.85
2024-04-19T04:00:42.543Z,1.02
2024-04-19T04:03:09.805Z,0.90
2024-04-19T04:05:36.440Z,0.80
2024-04-19T04:08:03.270Z,1.13
2024-04-19T04:10:29.766Z,0.88
2024-04-19T04:12:58.244Z,1.48
2024-04-19T04:15:25.080Z,0.63
2024-04-19T04:17:51.755Z,0.73
2024-04-19T04:20:18.393Z,0.68
2024-04-19T04:22:44.887Z,0.73
2024-04-19T04:25:11.576Z,0.63
2024-04-19T04:27:38.079Z,1.02
2024-04-19T04:30:05.083Z,0.90
2024-04-19T04:32:31.689Z,0.93
2024-04-19T04:34:58.446Z,1.50
2024-04-19T04:37:25.036Z,1.13
2024-04-19T04:39:51.732Z,0.93
2024-04-19T04:42:18.323Z,1.02
2024-04-19T04:44:44.857Z,1.05
2024-04-19T04:47:11.735Z,1.33
2024-04-19T04:49:38.251Z,1.70
2024-04-19T04:52:04.914Z,1.90
2024-04-19T04:54:31.455Z,2.22
2024-04-19T04:56:58.173Z,1.63
2024-04-19T04:59:24.708Z,2.42
2024-04-19T05:01:51.749Z,2.05
2024-04-19T05:04:18.331Z,2.83
2024-04-19T05:06:45.079Z,2.10
2024-04-19T05:09:11.794Z,1.98
2024-04-19T05:11:38.338Z,2.70
2024-04-19T05:14:04.938Z,2.15
2024-04-19T05:16:31.459Z,1.95
2024-04-19T05:18:58.072Z,2.33
2024-04-19T05:21:24.674Z,2.53
2024-04-19T05:23:51.715Z,1.90
2024-04-19T05:26:18.312Z,2.50
2024-04-19T05:28:44.966Z,3.20
2024-04-19T05:31:11.713Z,2.20
2024-04-19T05:33:38.270Z,2.80
2024-04-19T05:36:05.241Z,2.45
2024-04-19T05:38:31.787Z,2.70
2024-04-19T05:40:58.347Z,2.13
2024-04-19T05:43:24.869Z,2.33
2024-04-19T05:45:51.858Z,2.03
2024-04-19T05:48:21.695Z,2.10
2024-04-19T05:50:49.108Z,2.20
2024-04-19T05:53:15.679Z,2.20
2024-04-19T05:55:45.422Z,1.83
2024-04-19T05:58:13.218Z,2.13
2024-04-19T06:00:39.865Z,3.03
2024-04-19T06:03:06.694Z,2.67
2024-04-19T06:05:33.303Z,1.80
2024-04-19T06:07:59.906Z,2.45
2024-04-19T06:10:26.444Z,1.85
2024-04-19T06:12:53.172Z,2.72
2024-04-19T06:15:20.257Z,1.90
2024-04-19T06:17:46.857Z,2.85
2024-04-19T06:20:13.478Z,2.05
2024-04-19T06:22:40.029Z,1.95
2024-04-19T06:25:06.694Z,1.58
2024-04-19T06:27:33.280Z,1.40
2024-04-19T06:29:59.872Z,1.60
2024-04-19T06:32:26.526Z,1.80
2024-04-19T06:34:53.095Z,1.65
2024-04-19T06:37:19.878Z,1.58
2024-04-19T06:39:54.831Z,1.75
2024-04-19T06:42:29.018Z,1.65
2024-04-19T06:44:55.781Z,1.73
2024-04-19T06:47:22.449Z,2.20
2024-04-19T06:49:49.072Z,1.50
2024-04-19T06:52:15.621Z,2.35
2024-04-19T06:54:42.244Z,1.90
2024-04-19T06:57:09.076Z,1.77
2024-04-19T06:59:35.648Z,2.00
2024-04-19T07:02:02.321Z,1.67
2024-04-19T07:04:29.012Z,2.13
2024-04-19T07:06:55.632Z,1.77
2024-04-19T07:09:23.281Z,1.85
2024-04-19T07:11:50.715Z,2.53
2024-04-19T07:14:17.267Z,1.55
2024-04-19T07:16:44.115Z,2.15
2024-04-19T07:19:10.785Z,2.78
2024-04-19T07:21:37.319Z,1.42
2024-04-19T07:24:03.976Z,1.55
2024-04-19T07:26:30.530Z,1.80
2024-04-19T07:28:59.596Z,1.20
2024-04-19T07:31:26.167Z,0.80
2024-04-19T07:33:55.597Z,1.55
2024-04-19T07:36:22.142Z,0.70
2024-04-19T07:38:48.757Z,1.35
2024-04-19T07:41:16.898Z,0.60
2024-04-19T07:43:49.787Z,0.70
2024-04-19T07:46:20.607Z,0.70
2024-04-19T07:48:47.378Z,0.80
2024-04-19T07:51:13.984Z,0.85
2024-04-19T07:53:40.497Z,1.20
2024-04-19T07:56:07.131Z,0.85
2024-04-19T07:58:35.017Z,0.70
2024-04-19T08:01:01.853Z,0.95
2024-04-19T08:03:28.579Z,1.08
2024-04-19T08:05:55.196Z,1.15
2024-04-19T08:08:21.874Z,0.60
2024-04-19T08:10:48.368Z,0.77
2024-04-19T08:13:14.883Z,0.60
2024-04-19T08:15:41.442Z,1.23
2024-04-19T08:18:08.056Z,0.60
2024-04-19T08:20:34.662Z,0.80
2024-04-19T08:23:01.215Z,1.00
2024-04-19T08:25:27.764Z,0.77
2024-04-19T08:27:54.555Z,0.93
2024-04-19T08:30:22.220Z,0.65
2024-04-19T08:32:49.072Z,1.00
2024-04-19T08:35:15.716Z,0.80
2024-04-19T08:37:42.301Z,0.70
2024-04-19T08:40:22.378Z,0.90
2024-04-19T08:42:49.179Z,0.82
2024-04-19T08:45:21.299Z,1.02
2024-04-19T08:47:50.155Z,0.73
2024-04-19T08:50:19.704Z,0.73
2024-04-19T08:53:09.260Z,0.63
2024-04-19T08:55:38.268Z,0.70
2024-04-19T08:58:05.999Z,0.47
2024-04-19T09:00:32.563Z,0.38
2024-04-19T09:02:59.635Z,0.30
2024-04-19T09:05:26.376Z,0.35
2024-04-19T09:07:53.134Z,0.32
2024-04-19T09:10:20.347Z,0.43
2024-04-19T09:12:47.082Z,0.30
2024-04-19T09:15:13.598Z,0.30
2024-04-19T09:17:40.271Z,1.05
2024-04-19T09:20:07.241Z,0.28
2024-04-19T09:22:33.812Z,0.20
2024-04-19T09:25:00.446Z,0.20
2024-04-19T09:27:28.834Z,0.25
2024-04-19T09:32:24.978Z,0.20
2024-04-19T09:34:52.072Z,0.32
2024-04-19T09:37:18.749Z,0.20
2024-04-19T09:39:45.325Z,0.60
2024-04-19T09:42:11.937Z,0.30
2024-04-19T09:44:42.118Z,0.43
2024-04-19T09:47:11.872Z,0.20
2024-04-19T09:49:44.025Z,0.40
2024-04-19T09:52:20.630Z,0.30
2024-04-19T09:54:53.567Z,0.30
2024-04-19T09:57:23.028Z,0.20
2024-04-19T09:59:49.945Z,0.40
2024-04-19T10:02:24.650Z,0.30
2024-04-19T10:04:56.357Z,0.40
2024-04-19T10:07:24.811Z,0.30
2024-04-19T10:09:54.933Z,0.40
2024-04-19T10:12:22.612Z,0.50
2024-04-19T10:14:49.180Z,0.90
2024-04-19T10:17:15.760Z,0.57
2024-04-19T10:19:52.186Z,0.52
2024-04-19T10:22:25.763Z,0.85
2024-04-19T10:27:30.049Z,0.98
2024-04-19T10:30:01.076Z,0.38
2024-04-19T10:32:29.303Z,0.52
2024-04-19T10:34:56.070Z,0.82
2024-04-19T10:37:22.745Z,0.40
2024-04-19T10:39:49.361Z,0.35
2024-04-19T10:42:20.210Z,0.47
2024-04-19T10:44:49.382Z,0.38
2024-04-19T10:47:17.163Z,0.82
2024-04-19T10:49:45.315Z,0.38
2024-04-19T10:52:12.183Z,0.70
2024-04-19T10:54:38.880Z,0.85
2024-04-19T10:57:05.587Z,1.15
2024-04-19T10:59:32.243Z,0.50
2024-04-19T11:02:01.290Z,0.82
2024-04-19T11:04:28.241Z,0.55
2024-04-19T11:06:54.996Z,0.57
2024-04-19T11:09:22.188Z,0.85
2024-04-19T11:11:49.333Z,0.63
2024-04-19T11:14:20.081Z,0.60
2024-04-19T11:16:47.196Z,0.70
2024-04-19T11:19:17.374Z,0.43
2024-04-19T11:21:44.900Z,0.30
2024-04-19T11:24:11.725Z,0.50
2024-04-19T11:26:38.684Z,0.20
2024-04-19T11:29:06.242Z,0.30
2024-04-19T11:31:33.806Z,0.70
2024-04-19T11:34:01.422Z,0.50
2024-04-19T11:36:28.188Z,0.93
2024-04-19T11:38:59.300Z,1.13
2024-04-19T11:41:25.885Z,0.35
2024-04-19T11:43:52.888Z,0.68
2024-04-19T11:46:22.773Z,0.70
2024-04-19T11:48:49.440Z,1.10
2024-04-19T11:51:16.501Z,0.40
2024-04-19T11:53:43.014Z,0.43
2024-04-19T11:56:09.602Z,0.95
2024-04-19T11:58:36.412Z,0.70
2024-04-19T12:01:03.111Z,0.40
2024-04-19T12:03:31.618Z,0.77
2024-04-19T12:05:59.273Z,0.40
2024-04-19T12:08:26.183Z,0.40
2024-04-19T12:10:53.064Z,0.35
2024-04-19T12:14:07.773Z,0.28
2024-04-19T12:16:35.519Z,0.32
2024-04-19T12:18:54.248Z,0.32
2024-04-19T12:21:21.271Z,1.00
2024-04-19T12:23:49.523Z,0.65
2024-04-19T12:26:19.230Z,0.70
2024-04-19T12:28:54.063Z,0.55
2024-04-19T12:31:24.163Z,0.50
2024-04-19T12:33:51.113Z,0.43
2024-04-19T12:36:17.679Z,0.77
2024-04-19T12:38:44.239Z,0.63
2024-04-19T12:41:10.802Z,0.80
2024-04-19T12:43:37.888Z,1.15
2024-04-19T12:46:04.724Z,0.90
2024-04-19T12:48:31.658Z,0.73
2024-04-19T12:50:58.991Z,0.70
2024-04-19T12:53:25.501Z,0.55
2024-04-19T12:55:52.519Z,0.75
2024-04-19T12:58:19.709Z,0.85
2024-04-19T13:00:46.458Z,0.47
2024-04-19T13:03:13.250Z,0.75
2024-04-19T13:05:40.116Z,0.52
2024-04-19T13:08:07.083Z,0.70
2024-04-19T13:10:33.683Z,0.75
2024-04-19T13:13:00.354Z,0.50
2024-04-19T13:15:26.991Z,1.10
2024-04-19T13:17:53.620Z,0.82
2024-04-19T13:20:20.159Z,1.20
2024-04-19T13:22:46.661Z,0.90
2024-04-19T13:25:13.381Z,0.80
2024-04-19T13:27:40.178Z,1.13
2024-04-19T13:30:07.460Z,1.08
2024-04-19T13:32:34.915Z,1.13
2024-04-19T13:35:01.814Z,1.92
2024-04-19T13:37:28.503Z,1.02
2024-04-19T13:39:55.121Z,0.93
2024-04-19T13:42:22.365Z,0.88
2024-04-19T13:44:49.044Z,0.90
2024-04-19T13:47:15.670Z,0.98
2024-04-19T13:49:42.266Z,0.80
2024-04-19T13:52:09.087Z,0.70
2024-04-19T13:54:35.873Z,0.68
2024-04-19T13:57:02.579Z,1.00
2024-04-19T13:59:29.356Z,0.63
2024-04-19T14:01:57.086Z,0.95
2024-04-19T14:04:23.784Z,0.70
2024-04-19T14:06:51.145Z,0.63
2024-04-19T14:09:17.729Z,1.33
2024-04-19T14:11:45.776Z,1.25
2024-04-19T14:14:12.491Z,1.05
2024-04-19T14:16:39.112Z,1.10
2024-04-19T14:19:05.649Z,0.70
2024-04-19T14:21:32.643Z,1.52
2024-04-19T14:23:59.219Z,1.35
2024-04-19T14:26:25.834Z,1.27
2024-04-19T14:28:52.818Z,1.30
2024-04-19T14:31:19.403Z,0.50
2024-04-19T14:33:45.982Z,0.60
2024-04-19T14:36:12.644Z,0.90
2024-04-19T14:38:39.163Z,1.08
2024-04-19T14:41:06.945Z,1.00
2024-04-19T14:43:38.731Z,0.70
2024-04-19T14:46:06.771Z,1.20
2024-04-19T14:48:34.597Z,0.98
2024-04-19T14:51:01.410Z,1.05
2024-04-19T14:53:28.045Z,1.10
2024-04-19T14:55:55.675Z,0.93
2024-04-19T14:58:22.437Z,0.95
2024-04-19T15:00:51.331Z,0.95
2024-04-19T15:03:18.330Z,0.82
2024-04-19T15:05:44.998Z,0.45
2024-04-19T15:08:11.532Z,0.63
2024-04-19T15:10:40.065Z,0.70
2024-04-19T15:13:06.959Z,0.90
2024-04-19T15:15:33.903Z,0.63
2024-04-19T15:18:00.768Z,1.58
2024-04-19T15:20:27.727Z,0.60
2024-04-19T15:22:59.087Z,0.93
2024-04-19T15:25:26.591Z,0.85
2024-04-19T15:27:53.221Z,0.55
2024-04-19T15:30:19.906Z,0.52
2024-04-19T15:32:47.637Z,0.80
2024-04-19T15:35:14.588Z,0.88
2024-04-19T15:37:43.062Z,0.57
2024-04-19T15:40:10.080Z,1.60
2024-04-19T15:42:36.818Z,0.95
2024-04-19T15:45:03.771Z,0.93
2024-04-19T15:47:30.402Z,0.73
2024-04-19T15:49:57.158Z,0.80
2024-04-19T15:52:23.730Z,0.93
2024-04-19T15:54:52.883Z,1.17
2024-04-19T15:57:20.027Z,1.88
2024-04-19T15:59:46.559Z,1.60
2024-04-19T16:02:13.901Z,1.50
2024-04-19T16:04:40.487Z,0.82
2024-04-19T16:07:07.224Z,1.20
2024-04-19T16:09:33.868Z,1.00
2024-04-19T16:12:01.137Z,1.73
2024-04-19T16:14:27.962Z,1.25
2024-04-19T16:16:54.565Z,0.88
2024-04-19T16:19:21.501Z,1.63
2024-04-19T16:21:48.073Z,1.23
2024-04-19T16:24:14.594Z,1.02
2024-04-19T16:26:41.123Z,1.52
2024-04-19T16:29:07.686Z,1.10
2024-04-19T16:31:34.197Z,1.60
2024-04-19T16:34:00.883Z,1.25
2024-04-19T16:36:29.199Z,1.83
2024-04-19T16:38:56.343Z,1.40
2024-04-19T16:41:23.148Z,1.20
2024-04-19T16:43:49.712Z,1.10
2024-04-19T16:46:16.283Z,1.42
2024-04-19T16:48:43.721Z,1.90
2024-04-19T16:51:10.316Z,1.25
2024-04-19T16:53:36.890Z,1.40
2024-04-19T16:56:06.238Z,1.70
2024-04-19T16:58:34.677Z,1.60
2024-04-19T17:01:01.598Z,1.33
2024-04-19T17:03:28.295Z,1.45
2024-04-19T17:05:54.869Z,2.10
2024-04-19T17:08:21.687Z,1.63
2024-04-19T17:10:49.189Z,1.90
2024-04-19T17:13:15.988Z,1.25
2024-04-19T17:15:42.578Z,1.30
2024-04-19T17:18:09.169Z,1.65
2024-04-19T17:20:37.451Z,1.92
2024-04-19T17:23:04.082Z,1.30
2024-04-19T17:25:30.695Z,1.58
2024-04-19T17:27:59.135Z,2.38
2024-04-19T17:30:25.722Z,1.25
2024-04-19T17:32:52.872Z,1.60
2024-04-19T17:35:19.618Z,1.23
2024-04-19T17:37:46.184Z,1.50
2024-04-19T17:40:12.716Z,1.75
2024-04-19T17:42:39.294Z,1.23
2024-04-19T17:45:06.137Z,1.63
2024-04-19T17:47:32.915Z,2.45
2024-04-19T17:49:59.583Z,1.40
2024-04-19T17:52:26.181Z,1.70
2024-04-19T17:54:52.777Z,1.17
2024-04-19T17:57:19.351Z,1.27
2024-04-19T17:59:45.957Z,0.93
2024-04-19T18:02:14.115Z,1.00
2024-04-19T18:07:07.310Z,1.10
2024-04-19T18:09:33.914Z,1.10
2024-04-19T18:12:00.516Z,1.60
2024-04-19T18:14:27.103Z,0.93
2024-04-19T18:16:56.546Z,0.90
2024-04-19T18:19:26.817Z,1.05
2024-04-19T18:21:53.783Z,0.85
2024-04-19T18:24:24.520Z,1.10
2024-04-19T18:26:51.625Z,1.30
2024-04-19T18:29:18.127Z,0.98
2024-04-19T18:31:44.749Z,1.40
2024-04-19T18:34:16.923Z,0.88
2024-04-19T18:36:45.938Z,0.93
2024-04-19T18:39:13.111Z,0.63
2024-04-19T18:41:40.340Z,1.40
2024-04-19T18:44:07.079Z,1.45
2024-04-19T18:46:33.666Z,0.98
2024-04-19T18:49:00.468Z,1.13
2024-04-19T18:51:27.130Z,1.02
2024-04-19T18:53:54.440Z,1.27
2024-04-19T18:56:21.095Z,0.93
2024-04-19T18:58:48.658Z,1.38
2024-04-19T19:01:19.155Z,1.05
2024-04-19T19:03:47.947Z,0.88
2024-04-19T19:06:15.780Z,1.15
2024-04-19T19:08:42.354Z,1.15
2024-04-19T19:11:15.154Z,0.73
2024-04-19T19:13:44.536Z,0.90
2024-04-19T19:16:11.367Z,1.05
2024-04-19T19:18:38.094Z,0.93
2024-04-19T19:21:05.051Z,0.70
2024-04-19T19:23:32.049Z,1.48
2024-04-19T19:26:07.183Z,0.85
2024-04-19T19:28:34.096Z,1.17
2024-04-19T19:31:00.840Z,1.10
2024-04-19T19:33:27.843Z,0.95
2024-04-19T19:35:58.864Z,1.05
2024-04-19T19:38:25.470Z,0.88
2024-04-19T19:40:52.092Z,0.88
2024-04-19T19:43:21.458Z,1.40
2024-04-19T19:46:00.813Z,0.75
2024-04-19T19:48:30.016Z,0.95
2024-04-19T19:50:58.374Z,0.90
2024-04-19T19:53:25.079Z,1.20
2024-04-19T19:55:51.772Z,0.98
2024-04-19T19:58:19.235Z,0.95
2024-04-19T20:01:04.636Z,0.50
2024-04-19T20:03:49.877Z,0.63
2024-04-19T20:06:16.626Z,0.73
2024-04-19T20:08:43.213Z,0.47
2024-04-19T20:11:09.925Z,0.80
2024-04-19T20:13:37.274Z,0.80
2024-04-19T20:16:04.126Z,1.77
2024-04-19T20:18:30.981Z,1.13
2024-04-19T20:20:59.123Z,0.98
2024-04-19T20:23:25.935Z,1.20
2024-04-19T20:25:52.861Z,1.00
2024-04-19T20:28:19.437Z,0.82
2024-04-19T20:30:46.060Z,1.70
2024-04-19T20:33:12.703Z,0.90
2024-04-19T20:35:39.708Z,0.70
2024-04-19T20:38:06.498Z,1.33
2024-04-19T20:40:33.207Z,1.55
2024-04-19T20:43:14.682Z,1.25
2024-04-19T20:45:46.976Z,1.35
2024-04-19T20:48:13.708Z,0.85
2024-04-19T20:50:40.471Z,1.90
2024-04-19T20:53:07.014Z,1.50
2024-04-19T20:55:38.338Z,1.10
2024-04-19T20:58:05.168Z,2.17
2024-04-19T21:00:34.777Z,1.00
2024-04-19T21:03:01.940Z,1.42
2024-04-19T21:05:29.231Z,1.38
2024-04-19T21:07:55.756Z,1.23
2024-04-19T21:10:24.125Z,1.10
2024-04-19T21:12:51.777Z,1.63
2024-04-19T21:15:19.692Z,0.98
2024-04-19T21:17:46.363Z,0.65
2024-04-19T21:20:12.912Z,0.50
2024-04-19T21:22:39.600Z,0.50
2024-04-19T21:25:06.707Z,0.60
2024-04-19T21:27:34.167Z,0.65
2024-04-19T21:30:00.859Z,0.80
2024-04-19T21:32:29.746Z,0.73
2024-04-19T21:34:56.306Z,0.55
2024-04-19T21:37:23.102Z,0.80
2024-04-19T21:39:53.277Z,0.50
2024-04-19T21:42:22.031Z,0.75
2024-04-19T21:44:52.674Z,1.00
2024-04-19T21:47:19.900Z,0.68
2024-04-19T21:49:46.502Z,0.95
2024-04-19T21:52:13.060Z,0.65
2024-04-19T21:54:39.682Z,0.50
2024-04-19T21:57:06.262Z,0.85
2024-04-19T21:59:32.763Z,0.63
2024-04-19T22:01:59.557Z,0.52
2024-04-19T22:04:26.273Z,0.40
2024-04-19T22:06:53.101Z,0.57
2024-04-19T22:09:19.743Z,0.73
2024-04-19T22:11:46.306Z,0.65
2024-04-19T22:14:12.843Z,0.52
2024-04-19T22:16:39.440Z,0.77
2024-04-19T22:19:06.138Z,0.60
2024-04-19T22:21:32.957Z,0.30
2024-04-19T22:23:59.546Z,0.68
2024-04-19T22:26:26.484Z,0.38
2024-04-19T22:28:53.173Z,0.30
2024-04-19T22:31:19.823Z,0.22
2024-04-19T22:33:46.552Z,0.30
2024-04-19T22:36:13.196Z,0.30
2024-04-19T22:38:39.948Z,0.47
2024-04-19T22:41:06.477Z,0.20
2024-04-19T22:43:35.284Z,0.35
2024-04-19T22:46:05.417Z,0.40
2024-04-19T22:48:32.251Z,0.90
2024-04-19T22:50:59.412Z,0.45
2024-04-19T22:53:25.932Z,0.30
2024-04-19T22:55:56.521Z,0.40
2024-04-19T22:58:23.836Z,0.73
2024-04-19T23:00:51.106Z,0.90
2024-04-19T23:03:18.327Z,0.60
2024-04-19T23:05:44.860Z,0.50
2024-04-19T23:08:11.519Z,0.47
2024-04-19T23:10:38.171Z,0.30
2024-04-19T23:13:06.612Z,0.32
2024-04-19T23:15:34.962Z,0.50
2024-04-19T23:18:02.305Z,0.55
2024-04-19T23:20:29.555Z,0.75
2024-04-19T23:22:56.378Z,0.43
2024-04-19T23:25:23.234Z,0.30
2024-04-19T23:27:49.961Z,0.30
2024-04-19T23:30:16.794Z,0.25
2024-04-19T23:32:43.446Z,0.70
2024-04-19T23:35:10.248Z,0.40
2024-04-19T23:37:38.532Z,0.40
2024-04-19T23:40:06.191Z,0.40
2024-04-19T23:42:32.760Z,0.40
2024-04-19T23:44:59.560Z,0.52
2024-04-19T23:47:29.921Z,0.40
2024-04-19T23:49:57.119Z,0.60
2024-04-19T23:52:23.750Z,0.50
2024-04-19T23:54:51.901Z,0.47
2024-04-19T23:57:18.557Z,0.30
2024-04-19T23:59:45.321Z,0.63
